createdAt,value
2017-08-13T00:00:18.986Z,15.57
2017-08-13T00:01:28.951Z,15.62
2017-08-13T00:02:39.225Z,15.6
2017-08-13T00:03:49.527Z,15.54
2017-08-13T00:05:00.083Z,15.6
2017-08-13T00:06:10.104Z,15.62
2017-08-13T00:07:20.068Z,15.55
2017-08-13T00:08:30.337Z,15.6
2017-08-13T00:09:40.291Z,15.62
2017-08-13T00:10:50.880Z,15.63
2017-08-13T00:12:00.847Z,15.65
2017-08-13T00:13:11.128Z,15.69
2017-08-13T00:14:21.409Z,15.66
2017-08-13T00:15:31.366Z,15.55
2017-08-13T00:16:41.597Z,15.55
2017-08-13T00:17:51.553Z,15.52
2017-08-13T00:19:01.510Z,15.57
2017-08-13T00:20:11.811Z,15.59
2017-08-13T00:21:21.464Z,15.54
2017-08-13T00:22:31.680Z,15.52
2017-08-13T00:23:41.652Z,15.6
2017-08-13T00:24:51.956Z,15.51
2017-08-13T00:26:01.925Z,15.54
2017-08-13T00:27:11.905Z,15.48
2017-08-13T00:28:22.439Z,15.62
2017-08-13T00:29:32.404Z,15.54
2017-08-13T00:30:42.357Z,15.6
2017-08-13T00:31:52.008Z,15.51
2017-08-13T00:33:02.288Z,15.51
2017-08-13T00:34:12.825Z,15.48
2017-08-13T00:35:22.796Z,15.54
2017-08-13T00:36:33.100Z,15.47
2017-08-13T00:37:43.378Z,15.48
2017-08-13T00:38:53.035Z,15.51
2017-08-13T00:40:03.566Z,15.45
2017-08-13T00:41:13.518Z,15.5
2017-08-13T00:42:23.492Z,15.48
2017-08-13T00:43:33.774Z,15.52
2017-08-13T00:44:43.757Z,15.51
2017-08-13T00:45:53.976Z,15.5
2017-08-13T00:47:04.268Z,15.5
2017-08-13T00:48:13.942Z,15.54
2017-08-13T00:49:23.899Z,15.63
2017-08-13T00:50:33.874Z,15.59
2017-08-13T00:51:44.108Z,15.6
2017-08-13T00:52:54.397Z,15.55
2017-08-13T00:54:04.662Z,15.55
2017-08-13T00:55:14.622Z,15.62
2017-08-13T00:56:24.905Z,15.55
2017-08-13T00:57:35.434Z,15.62
2017-08-13T00:58:45.399Z,15.63
2017-08-13T00:59:55.368Z,15.48
2017-08-13T01:01:05.640Z,15.57
2017-08-13T01:02:15.913Z,15.62
2017-08-13T01:03:26.438Z,15.59
2017-08-13T01:04:36.727Z,15.55
2017-08-13T01:05:47.019Z,15.55
2017-08-13T01:06:57.307Z,15.55
2017-08-13T01:08:07.279Z,15.62
2017-08-13T01:09:17.793Z,15.57
2017-08-13T01:10:28.071Z,15.66
2017-08-13T01:11:38.035Z,15.62
2017-08-13T01:12:47.680Z,15.66
2017-08-13T01:13:57.034Z,15.6
2017-08-13T01:15:07.583Z,15.65
2017-08-13T01:16:17.875Z,15.54
2017-08-13T01:17:28.146Z,15.51
2017-08-13T01:18:37.488Z,15.52
2017-08-13T01:19:47.461Z,15.5
2017-08-13T01:20:57.992Z,15.43
2017-08-13T01:22:07.351Z,15.5
2017-08-13T01:23:17.642Z,15.43
2017-08-13T01:24:27.909Z,15.47
2017-08-13T01:25:38.185Z,15.48
2017-08-13T01:26:48.700Z,15.45
2017-08-13T01:27:59.007Z,15.47
2017-08-13T01:29:09.297Z,15.41
2017-08-13T01:30:19.591Z,15.39
2017-08-13T01:31:29.572Z,15.43
2017-08-13T01:32:39.790Z,15.39
2017-08-13T01:33:50.066Z,15.36
2017-08-13T01:35:00.348Z,15.27
2017-08-13T01:36:10.302Z,15.29
2017-08-13T01:37:20.593Z,15.17
2017-08-13T01:38:31.111Z,15.25
2017-08-13T01:39:41.388Z,15.19
2017-08-13T01:40:51.376Z,15.17
2017-08-13T01:42:01.655Z,15.18
2017-08-13T01:43:11.322Z,15.15
2017-08-13T01:44:21.850Z,15.15
2017-08-13T01:45:31.503Z,15.22
2017-08-13T01:46:41.768Z,15.17
2017-08-13T01:47:51.731Z,15.14
2017-08-13T01:49:01.695Z,15.11
2017-08-13T01:50:11.909Z,15.17
2017-08-13T01:51:21.867Z,15.12
2017-08-13T01:52:31.830Z,15.15
2017-08-13T01:53:42.110Z,15.19
2017-08-13T01:54:52.387Z,15.17
2017-08-13T01:56:02.290Z,15.04
2017-08-13T01:57:12.279Z,15.1
2017-08-13T01:58:21.933Z,15.1
2017-08-13T01:59:32.218Z,15
2017-08-13T02:00:42.189Z,15.1
2017-08-13T02:01:52.745Z,15.05
2017-08-13T02:03:03.011Z,15
2017-08-13T02:04:12.969Z,15.05
2017-08-13T02:05:22.616Z,15.02
2017-08-13T02:06:32.886Z,15.05
2017-08-13T02:07:43.427Z,15
2017-08-13T02:08:53.398Z,15
2017-08-13T02:10:03.661Z,14.99
2017-08-13T02:11:13.939Z,15.04
2017-08-13T02:12:23.605Z,14.99
2017-08-13T02:13:34.147Z,14.99
2017-08-13T02:14:44.110Z,15.07
2017-08-13T02:15:54.377Z,14.97
2017-08-13T02:17:04.039Z,15.04
2017-08-13T02:18:14.295Z,15.02
2017-08-13T02:19:24.202Z,15.02
2017-08-13T02:20:34.169Z,14.96
2017-08-13T02:21:44.447Z,14.99
2017-08-13T02:22:54.735Z,15
2017-08-13T02:24:05.029Z,14.99
2017-08-13T02:25:15.556Z,15
2017-08-13T02:26:25.538Z,14.96
2017-08-13T02:27:35.837Z,14.94
2017-08-13T02:28:46.122Z,14.93
2017-08-13T02:29:56.407Z,14.93
2017-08-13T02:31:06.933Z,14.9
2017-08-13T02:32:17.231Z,14.9
2017-08-13T02:33:27.199Z,14.92
2017-08-13T02:34:37.479Z,14.9
2017-08-13T02:35:47.770Z,14.89
2017-08-13T02:36:58.299Z,14.86
2017-08-13T02:38:07.959Z,14.85
2017-08-13T02:39:18.228Z,14.86
2017-08-13T02:40:28.507Z,14.85
2017-08-13T02:41:38.469Z,14.86
2017-08-13T02:42:48.710Z,14.71
2017-08-13T02:43:58.991Z,14.81
2017-08-13T02:45:09.269Z,14.78
2017-08-13T02:46:18.933Z,14.77
2017-08-13T02:47:29.227Z,14.79
2017-08-13T02:48:39.768Z,14.78
2017-08-13T02:49:49.734Z,14.71
2017-08-13T02:51:00.043Z,14.78
2017-08-13T02:52:10.318Z,14.74
2017-08-13T02:53:20.602Z,14.81
2017-08-13T02:54:31.176Z,14.78
2017-08-13T02:55:41.445Z,14.78
2017-08-13T02:56:51.714Z,14.78
2017-08-13T02:58:02.008Z,14.66
2017-08-13T02:59:11.675Z,14.77
2017-08-13T03:00:22.194Z,14.74
2017-08-13T03:01:32.455Z,14.71
2017-08-13T03:02:42.726Z,14.71
2017-08-13T03:03:53.012Z,14.79
2017-08-13T03:05:02.973Z,14.71
2017-08-13T03:06:13.191Z,14.71
2017-08-13T03:07:23.167Z,14.66
2017-08-13T03:08:33.139Z,14.68
2017-08-13T03:09:43.420Z,14.61
2017-08-13T03:10:53.390Z,14.74
2017-08-13T03:12:03.937Z,14.79
2017-08-13T03:13:14.203Z,14.78
2017-08-13T03:14:24.165Z,14.71
2017-08-13T03:15:33.816Z,14.59
2017-08-13T03:16:43.778Z,14.66
2017-08-13T03:17:54.012Z,14.55
2017-08-13T03:19:04.311Z,14.45
2017-08-13T03:20:14.589Z,14.45
2017-08-13T03:21:24.854Z,14.37
2017-08-13T03:22:34.818Z,14.36
2017-08-13T03:23:45.337Z,14.2
2017-08-13T03:24:55.293Z,14.26
2017-08-13T03:26:05.569Z,14.26
2017-08-13T03:27:15.857Z,14.25
2017-08-13T03:28:26.128Z,14.25
2017-08-13T03:29:36.027Z,14.33
2017-08-13T03:30:45.697Z,14.3
2017-08-13T03:31:55.976Z,14.41
2017-08-13T03:33:06.263Z,14.41
2017-08-13T03:34:16.539Z,14.4
2017-08-13T03:35:27.066Z,14.53
2017-08-13T03:36:37.342Z,14.53
2017-08-13T03:37:47.614Z,14.55
2017-08-13T03:38:57.253Z,14.45
2017-08-13T03:40:07.526Z,14.44
2017-08-13T03:41:18.054Z,14.49
2017-08-13T03:42:28.328Z,14.61
2017-08-13T03:43:37.978Z,14.62
2017-08-13T03:44:48.239Z,14.58
2017-08-13T03:45:58.501Z,14.66
2017-08-13T03:47:09.032Z,14.62
2017-08-13T03:48:19.308Z,14.7
2017-08-13T03:49:29.582Z,14.59
2017-08-13T03:50:39.863Z,14.73
2017-08-13T03:51:50.139Z,14.7
2017-08-13T03:53:00.667Z,14.81
2017-08-13T03:54:10.941Z,14.77
2017-08-13T03:55:20.903Z,14.85
2017-08-13T03:56:30.884Z,14.81
2017-08-13T03:57:40.855Z,14.79
2017-08-13T03:58:51.377Z,14.85
2017-08-13T04:00:01.662Z,14.86
2017-08-13T04:01:11.936Z,14.92
2017-08-13T04:02:22.195Z,14.94
2017-08-13T04:03:32.472Z,15
2017-08-13T04:04:42.689Z,14.96
2017-08-13T04:05:52.967Z,14.94
2017-08-13T04:07:03.238Z,14.97
2017-08-13T04:08:13.519Z,15.1
2017-08-13T04:09:23.803Z,15.14
2017-08-13T04:10:34.351Z,15.15
2017-08-13T04:11:44.633Z,15.22
2017-08-13T04:12:54.924Z,15.18
2017-08-13T04:14:05.205Z,15.22
2017-08-13T04:15:15.483Z,15.22
2017-08-13T04:16:25.697Z,15.27
2017-08-13T04:17:35.653Z,15.26
2017-08-13T04:18:45.926Z,15.32
2017-08-13T04:19:55.582Z,15.33
2017-08-13T04:21:04.929Z,15.37
2017-08-13T04:22:15.462Z,15.33
2017-08-13T04:23:25.425Z,15.27
2017-08-13T04:24:35.396Z,15.29
2017-08-13T04:25:45.678Z,15.39
2017-08-13T04:26:55.954Z,15.45
2017-08-13T04:28:06.487Z,15.43
2017-08-13T04:29:16.463Z,15.45
2017-08-13T04:30:26.738Z,15.43
2017-08-13T04:31:37.016Z,15.51
2017-08-13T04:32:46.990Z,15.5
2017-08-13T04:33:57.210Z,15.47
2017-08-13T04:35:07.183Z,15.55
2017-08-13T04:36:17.467Z,15.51
2017-08-13T04:37:27.426Z,15.51
2017-08-13T04:38:37.700Z,15.55
2017-08-13T04:39:48.231Z,15.6
2017-08-13T04:40:57.881Z,15.59
2017-08-13T04:42:07.860Z,15.55
2017-08-13T04:43:17.510Z,15.54
2017-08-13T04:44:27.789Z,15.43
2017-08-13T04:45:38.325Z,15.44
2017-08-13T04:46:48.287Z,15.41
2017-08-13T04:47:58.256Z,15.45
2017-08-13T04:49:08.217Z,15.48
2017-08-13T04:50:18.191Z,15.48
2017-08-13T04:51:28.422Z,15.5
2017-08-13T04:52:38.684Z,15.51
2017-08-13T04:53:48.666Z,15.5
2017-08-13T04:54:58.932Z,15.52
2017-08-13T04:56:09.212Z,15.48
2017-08-13T04:57:19.747Z,15.54
2017-08-13T04:58:30.036Z,15.69
2017-08-13T04:59:40.011Z,15.66
2017-08-13T05:00:50.529Z,15.57
2017-08-13T05:02:00.801Z,15.62
2017-08-13T05:03:11.018Z,15.63
2017-08-13T05:04:21.002Z,15.6
2017-08-13T05:05:30.959Z,15.65
2017-08-13T05:06:41.248Z,15.69
2017-08-13T05:07:51.536Z,15.69
2017-08-13T05:09:02.044Z,15.75
2017-08-13T05:10:12.313Z,15.76
2017-08-13T05:11:22.273Z,15.81
2017-08-13T05:12:32.549Z,15.8
2017-08-13T05:13:42.827Z,15.75
2017-08-13T05:14:53.044Z,15.8
2017-08-13T05:16:03.313Z,15.73
2017-08-13T05:17:13.575Z,15.76
2017-08-13T05:18:23.524Z,15.88
2017-08-13T05:19:33.488Z,15.85
2017-08-13T05:20:43.717Z,15.91
2017-08-13T05:21:53.988Z,16.03
2017-08-13T05:23:04.257Z,16.03
2017-08-13T05:24:14.523Z,16.02
2017-08-13T05:25:24.801Z,16
2017-08-13T05:26:35.338Z,16
2017-08-13T05:27:45.316Z,16.02
2017-08-13T05:28:54.967Z,16.05
2017-08-13T05:30:04.924Z,16.02
2017-08-13T05:31:14.880Z,16
2017-08-13T05:32:25.395Z,15.96
2017-08-13T05:33:35.670Z,16.05
2017-08-13T05:34:45.937Z,15.94
2017-08-13T05:35:55.575Z,15.99
2017-08-13T05:37:05.860Z,15.99
2017-08-13T05:38:16.076Z,15.98
2017-08-13T05:39:26.039Z,16.02
2017-08-13T05:40:36.333Z,16.12
2017-08-13T05:41:46.597Z,16.09
2017-08-13T05:42:56.882Z,16.24
2017-08-13T05:44:07.411Z,16.22
2017-08-13T05:45:17.068Z,16.26
2017-08-13T05:46:27.068Z,16.24
2017-08-13T05:47:37.371Z,16.36
2017-08-13T05:48:47.641Z,16.32
2017-08-13T05:49:57.875Z,16.43
2017-08-13T05:51:07.833Z,16.43
2017-08-13T05:52:18.111Z,16.43
2017-08-13T05:53:28.384Z,16.54
2017-08-13T05:54:38.668Z,16.57
2017-08-13T05:55:49.253Z,16.62
2017-08-13T05:56:59.534Z,16.74
2017-08-13T05:58:09.816Z,16.76
2017-08-13T05:59:19.780Z,16.79
2017-08-13T06:00:29.762Z,16.73
2017-08-13T06:01:40.283Z,16.84
2017-08-13T06:02:50.562Z,16.82
2017-08-13T06:04:00.538Z,16.73
2017-08-13T06:05:10.509Z,16.68
2017-08-13T06:06:20.785Z,16.58
2017-08-13T06:07:31.339Z,16.68
2017-08-13T06:08:41.634Z,16.65
2017-08-13T06:09:51.926Z,16.64
2017-08-13T06:11:01.891Z,16.73
2017-08-13T06:12:11.870Z,16.74
2017-08-13T06:13:22.395Z,16.74
2017-08-13T06:14:32.670Z,16.72
2017-08-13T06:15:42.635Z,16.8
2017-08-13T06:16:52.921Z,16.82
2017-08-13T06:18:02.885Z,16.77
2017-08-13T06:19:13.423Z,16.95
2017-08-13T06:20:23.403Z,16.83
2017-08-13T06:21:33.380Z,16.95
2017-08-13T06:22:43.341Z,16.97
2017-08-13T06:23:53.613Z,17.05
2017-08-13T06:25:04.147Z,17.07
2017-08-13T06:26:14.124Z,17.09
2017-08-13T06:27:24.103Z,17.12
2017-08-13T06:28:34.411Z,17.09
2017-08-13T06:29:44.391Z,17.13
2017-08-13T06:30:55.684Z,17.09
2017-08-13T06:32:05.654Z,17.16
2017-08-13T06:33:15.929Z,17.05
2017-08-13T06:34:25.888Z,17.09
2017-08-13T06:35:35.856Z,17.16
2017-08-13T06:36:46.083Z,17.07
2017-08-13T06:37:56.053Z,17.07
2017-08-13T06:39:06.020Z,17.09
2017-08-13T06:40:15.993Z,17.2
2017-08-13T06:41:25.952Z,17.19
2017-08-13T06:42:36.468Z,17.12
2017-08-13T06:43:46.753Z,17.12
2017-08-13T06:44:57.053Z,17.16
2017-08-13T06:46:07.020Z,17.2
2017-08-13T06:47:16.653Z,17.28
2017-08-13T06:48:26.586Z,17.38
2017-08-13T06:49:36.870Z,17.41
2017-08-13T06:50:47.175Z,17.53
2017-08-13T06:51:57.457Z,17.49
2017-08-13T06:53:07.430Z,17.66
2017-08-13T06:54:17.952Z,17.71
2017-08-13T06:55:27.925Z,17.73
2017-08-13T06:56:37.906Z,17.75
2017-08-13T06:57:48.175Z,17.73
2017-08-13T06:58:58.442Z,17.82
2017-08-13T07:00:08.962Z,17.86
2017-08-13T07:01:18.935Z,17.75
2017-08-13T07:02:29.206Z,17.84
2017-08-13T07:03:39.170Z,17.84
2017-08-13T07:04:49.431Z,17.84
2017-08-13T07:05:59.653Z,17.8
2017-08-13T07:07:09.918Z,17.66
2017-08-13T07:08:19.896Z,17.73
2017-08-13T07:09:30.177Z,17.71
2017-08-13T07:10:40.167Z,17.72
2017-08-13T07:11:50.381Z,17.66
2017-08-13T07:13:00.352Z,17.6
2017-08-13T07:14:10.624Z,17.68
2017-08-13T07:15:20.591Z,17.68
2017-08-13T07:16:30.558Z,17.75
2017-08-13T07:17:40.483Z,17.73
2017-08-13T07:18:50.459Z,17.75
2017-08-13T07:20:00.712Z,17.71
2017-08-13T07:21:10.691Z,17.79
2017-08-13T07:22:20.696Z,17.75
2017-08-13T07:23:31.233Z,17.75
2017-08-13T07:24:41.524Z,17.8
2017-08-13T07:25:51.792Z,17.88
2017-08-13T07:27:01.758Z,17.93
2017-08-13T07:28:11.745Z,17.93
2017-08-13T07:29:21.989Z,18.03
2017-08-13T07:30:32.261Z,17.97
2017-08-13T07:31:42.235Z,18.12
2017-08-13T07:32:52.515Z,18.13
2017-08-13T07:34:02.499Z,18.11
2017-08-13T07:35:12.729Z,18.18
2017-08-13T07:36:23.024Z,18.3
2017-08-13T07:37:33.320Z,18.33
2017-08-13T07:38:43.600Z,18.37
2017-08-13T07:39:53.873Z,18.52
2017-08-13T07:41:04.416Z,18.48
2017-08-13T07:42:14.381Z,18.46
2017-08-13T07:43:24.352Z,18.55
2017-08-13T07:44:34.010Z,18.61
2017-08-13T07:45:43.995Z,18.67
2017-08-13T07:46:54.207Z,18.7
2017-08-13T07:48:04.487Z,18.83
2017-08-13T07:49:14.157Z,18.85
2017-08-13T07:50:24.117Z,18.88
2017-08-13T07:51:33.766Z,18.85
2017-08-13T07:52:43.670Z,18.83
2017-08-13T07:53:53.941Z,18.86
2017-08-13T07:55:03.907Z,18.74
2017-08-13T07:56:13.899Z,18.73
2017-08-13T07:57:23.889Z,18.71
2017-08-13T07:58:33.845Z,18.78
2017-08-13T07:59:44.149Z,18.67
2017-08-13T08:00:54.439Z,18.66
2017-08-13T08:02:04.718Z,18.61
2017-08-13T08:03:14.394Z,18.74
2017-08-13T08:04:24.930Z,18.73
2017-08-13T08:05:35.201Z,18.66
2017-08-13T08:06:45.171Z,18.68
2017-08-13T08:07:54.839Z,18.7
2017-08-13T08:09:04.825Z,18.6
2017-08-13T08:10:15.056Z,18.61
2017-08-13T08:11:25.328Z,18.57
2017-08-13T08:12:35.312Z,18.57
2017-08-13T08:13:45.277Z,18.6
2017-08-13T08:14:55.248Z,18.55
2017-08-13T08:16:05.781Z,18.73
2017-08-13T08:17:15.750Z,18.73
2017-08-13T08:18:26.044Z,18.78
2017-08-13T08:19:36.053Z,18.88
2017-08-13T08:20:46.349Z,18.98
2017-08-13T08:21:56.572Z,19.05
2017-08-13T08:23:06.865Z,19.19
2017-08-13T08:24:17.153Z,19.27
2017-08-13T08:25:27.122Z,19.39
2017-08-13T08:26:37.402Z,19.42
2017-08-13T08:27:47.963Z,19.34
2017-08-13T08:28:57.929Z,19.35
2017-08-13T08:30:07.905Z,19.35
2017-08-13T08:31:18.211Z,19.39
2017-08-13T08:32:28.511Z,19.48
2017-08-13T08:33:38.451Z,19.48
2017-08-13T08:34:48.721Z,19.48
2017-08-13T08:35:58.701Z,19.32
2017-08-13T08:37:08.675Z,19.26
2017-08-13T08:38:18.956Z,19.05
2017-08-13T08:39:29.188Z,19
2017-08-13T08:40:39.172Z,18.98
2017-08-13T08:41:49.148Z,18.96
2017-08-13T08:42:59.126Z,18.88
2017-08-13T08:44:09.386Z,18.89
2017-08-13T08:45:19.628Z,18.91
2017-08-13T08:46:29.607Z,19.04
2017-08-13T08:47:39.586Z,19.08
2017-08-13T08:48:49.249Z,19.01
2017-08-13T08:49:59.519Z,19.19
2017-08-13T08:51:09.835Z,19.29
2017-08-13T08:52:19.515Z,19.38
2017-08-13T08:53:29.195Z,19.56
2017-08-13T08:54:39.175Z,19.74
2017-08-13T08:55:49.482Z,19.89
2017-08-13T08:57:00.022Z,20.22
2017-08-13T08:58:10.301Z,20.33
2017-08-13T08:59:20.275Z,20.39
2017-08-13T09:00:30.248Z,20.78
2017-08-13T09:01:40.519Z,20.93
2017-08-13T09:02:50.755Z,21.03
2017-08-13T09:04:00.432Z,21.15
2017-08-13T09:05:10.721Z,21.13
2017-08-13T09:06:21.026Z,21.25
2017-08-13T09:07:31.328Z,21.35
2017-08-13T09:08:41.877Z,21.29
2017-08-13T09:09:52.179Z,21.43
2017-08-13T09:11:02.165Z,21.41
2017-08-13T09:12:12.467Z,21.3
2017-08-13T09:13:22.756Z,21.25
2017-08-13T09:14:33.303Z,21.43
2017-08-13T09:15:43.590Z,21.58
2017-08-13T09:16:53.889Z,21.69
2017-08-13T09:18:03.872Z,21.77
2017-08-13T09:19:14.176Z,21.56
2017-08-13T09:20:24.402Z,21.7
2017-08-13T09:21:34.397Z,21.85
2017-08-13T09:22:44.373Z,22.01
2017-08-13T09:23:54.664Z,22
2017-08-13T09:25:04.948Z,21.81
2017-08-13T09:26:15.202Z,21.63
2017-08-13T09:27:25.487Z,21.43
2017-08-13T09:28:35.157Z,21.3
2017-08-13T09:29:45.433Z,21.35
2017-08-13T09:30:55.753Z,21.32
2017-08-13T09:32:05.994Z,21.33
2017-08-13T09:33:16.280Z,21.28
2017-08-13T09:34:26.593Z,21.33
2017-08-13T09:35:36.876Z,21.47
2017-08-13T09:36:46.850Z,21.65
2017-08-13T09:37:57.377Z,21.89
2017-08-13T09:39:07.359Z,21.85
2017-08-13T09:40:17.646Z,21.66
2017-08-13T09:41:27.947Z,21.48
2017-08-13T09:42:38.250Z,21.35
2017-08-13T09:43:48.819Z,21.29
2017-08-13T09:44:58.791Z,21.22
2017-08-13T09:46:08.772Z,21.23
2017-08-13T09:47:19.073Z,21.22
2017-08-13T09:48:29.362Z,21.05
2017-08-13T09:49:39.905Z,21.32
2017-08-13T09:50:49.588Z,21.41
2017-08-13T09:51:59.572Z,21.38
2017-08-13T09:53:09.881Z,21.56
2017-08-13T09:54:20.175Z,21.7
2017-08-13T09:55:30.425Z,22.18
2017-08-13T09:56:40.708Z,22.38
2017-08-13T09:57:51.010Z,22.52
2017-08-13T09:59:01.304Z,22.81
2017-08-13T10:00:11.610Z,22.53
2017-08-13T10:01:22.152Z,22.38
2017-08-13T10:02:32.466Z,22.38
2017-08-13T10:03:42.438Z,22.46
2017-08-13T10:04:52.436Z,22.67
2017-08-13T10:06:02.723Z,22.8
2017-08-13T10:07:13.291Z,22.89
2017-08-13T10:08:23.281Z,23.02
2017-08-13T10:09:33.576Z,22.96
2017-08-13T10:10:43.876Z,22.99
2017-08-13T10:11:53.854Z,22.95
2017-08-13T10:13:04.408Z,23.21
2017-08-13T10:14:14.748Z,23.14
2017-08-13T10:15:25.046Z,23.25
2017-08-13T10:16:35.341Z,23.55
2017-08-13T10:17:45.352Z,23.69
2017-08-13T10:19:00.699Z,23.96
2017-08-13T10:20:11.006Z,23.91
2017-08-13T10:21:21.362Z,23.88
2017-08-13T10:22:31.339Z,23.52
2017-08-13T10:23:41.637Z,23.16
2017-08-13T10:24:51.586Z,22.95
2017-08-13T10:26:01.977Z,22.89
2017-08-13T10:27:12.287Z,22.7
2017-08-13T10:28:21.951Z,22.51
2017-08-13T10:29:32.243Z,22.3
2017-08-13T10:30:42.170Z,22.19
2017-08-13T10:31:52.447Z,21.99
2017-08-13T10:33:01.809Z,21.94
2017-08-13T10:34:12.112Z,21.92
2017-08-13T10:35:22.408Z,21.85
2017-08-13T10:36:32.648Z,21.89
2017-08-13T10:37:42.926Z,21.85
2017-08-13T10:38:52.919Z,21.85
2017-08-13T10:40:03.203Z,21.54
2017-08-13T10:41:13.209Z,21.51
2017-08-13T10:42:23.223Z,21.58
2017-08-13T10:43:33.432Z,21.81
2017-08-13T10:44:43.447Z,22.06
2017-08-13T10:45:53.504Z,22.23
2017-08-13T10:47:03.823Z,22.07
2017-08-13T10:48:14.361Z,22.04
2017-08-13T10:49:24.049Z,22.23
2017-08-13T10:50:34.366Z,22.19
2017-08-13T10:51:44.665Z,22.4
2017-08-13T10:52:54.948Z,22.73
2017-08-13T10:54:05.493Z,22.73
2017-08-13T10:55:15.465Z,22.62
2017-08-13T10:56:25.758Z,22.47
2017-08-13T10:57:35.735Z,22.3
2017-08-13T10:58:45.714Z,22.25
2017-08-13T10:59:55.955Z,22.47
2017-08-13T11:01:05.925Z,22.61
2017-08-13T11:02:16.253Z,22.84
2017-08-13T11:03:26.244Z,23.02
2017-08-13T11:04:36.225Z,23.01
2017-08-13T11:05:46.452Z,23.26
2017-08-13T11:06:56.440Z,23.81
2017-08-13T11:08:06.756Z,24.03
2017-08-13T11:09:17.050Z,24.18
2017-08-13T11:10:27.352Z,24.55
2017-08-13T11:11:37.597Z,24.56
2017-08-13T11:12:47.565Z,24.69
2017-08-13T11:13:57.858Z,24.48
2017-08-13T11:15:08.169Z,24.65
2017-08-13T11:16:17.228Z,24.81
2017-08-13T11:17:27.809Z,24.21
2017-08-13T11:18:38.097Z,24.03
2017-08-13T11:19:48.432Z,23.56
2017-08-13T11:20:58.423Z,23.34
2017-08-13T11:22:08.736Z,23.4
2017-08-13T11:23:19.297Z,23.42
2017-08-13T11:24:29.586Z,23.45
2017-08-13T11:25:39.565Z,23.48
2017-08-13T11:26:49.851Z,23.32
2017-08-13T11:28:00.145Z,23.66
2017-08-13T11:29:10.388Z,23.73
2017-08-13T11:30:20.384Z,23.66
2017-08-13T11:31:30.676Z,23.54
2017-08-13T11:32:40.995Z,23.39
2017-08-13T11:33:51.288Z,23.33
2017-08-13T11:35:01.877Z,23.32
2017-08-13T11:36:12.171Z,23.34
2017-08-13T11:37:22.174Z,23.32
2017-08-13T11:38:32.453Z,23.56
2017-08-13T11:39:42.740Z,23.55
2017-08-13T11:40:53.283Z,23.4
2017-08-13T11:42:03.585Z,23.32
2017-08-13T11:43:13.567Z,23.14
2017-08-13T11:44:23.879Z,23.04
2017-08-13T11:45:34.215Z,22.99
2017-08-13T11:46:44.744Z,22.98
2017-08-13T11:47:54.728Z,23.08
2017-08-13T11:49:05.014Z,23.02
2017-08-13T11:50:15.312Z,22.98
2017-08-13T11:51:25.601Z,23.01
2017-08-13T11:52:35.807Z,22.86
2017-08-13T11:53:45.784Z,22.53
2017-08-13T11:54:55.794Z,22.51
2017-08-13T11:56:06.115Z,22.51
2017-08-13T11:57:16.404Z,22.63
2017-08-13T11:58:26.952Z,22.89
2017-08-13T11:59:37.254Z,23.01
2017-08-13T12:00:47.530Z,23.23
2017-08-13T12:01:57.850Z,23.28
2017-08-13T12:03:07.841Z,23.21
2017-08-13T12:04:18.365Z,23.13
2017-08-13T12:05:28.670Z,23.04
2017-08-13T12:06:38.666Z,22.91
2017-08-13T12:07:48.664Z,22.99
2017-08-13T12:08:58.951Z,22.98
2017-08-13T12:10:08.877Z,22.93
2017-08-13T12:11:18.850Z,23.02
2017-08-13T12:12:29.152Z,23.2
2017-08-13T12:13:39.435Z,23.17
2017-08-13T12:14:49.727Z,23.14
2017-08-13T12:15:59.945Z,23.14
2017-08-13T12:17:10.237Z,23.01
2017-08-13T12:18:20.538Z,23.06
2017-08-13T12:19:30.830Z,22.86
2017-08-13T12:20:40.800Z,22.68
2017-08-13T12:21:51.033Z,22.61
2017-08-13T12:23:01.325Z,22.53
2017-08-13T12:24:11.605Z,22.46
2017-08-13T12:25:21.890Z,22.38
2017-08-13T12:26:32.169Z,22.46
2017-08-13T12:27:42.407Z,22.38
2017-08-13T12:28:52.410Z,22.18
2017-08-13T12:30:02.694Z,22.28
2017-08-13T12:31:12.994Z,22.15
2017-08-13T12:32:23.180Z,22.08
2017-08-13T12:33:33.100Z,21.94
2017-08-13T12:34:43.388Z,21.96
2017-08-13T12:35:53.734Z,21.84
2017-08-13T12:37:04.018Z,21.96
2017-08-13T12:38:14.326Z,22.01
2017-08-13T12:39:24.241Z,21.91
2017-08-13T12:40:34.550Z,21.85
2017-08-13T12:41:44.520Z,21.7
2017-08-13T12:42:53.864Z,21.65
2017-08-13T12:44:04.163Z,21.62
2017-08-13T12:45:14.695Z,21.56
2017-08-13T12:46:25.013Z,21.56
2017-08-13T12:47:35.011Z,21.59
2017-08-13T12:48:44.971Z,21.75
2017-08-13T12:49:54.966Z,21.81
2017-08-13T12:51:05.510Z,22.04
2017-08-13T12:52:15.791Z,22.33
2017-08-13T12:53:26.091Z,22.51
2017-08-13T12:54:36.062Z,22.71
2017-08-13T12:55:46.044Z,23.07
2017-08-13T12:56:56.590Z,23.32
2017-08-13T12:58:06.886Z,23.29
2017-08-13T12:59:16.228Z,23.23
2017-08-13T13:00:26.519Z,23.32
2017-08-13T13:01:36.905Z,23.44
2017-08-13T13:02:47.139Z,23.66
2017-08-13T13:03:57.419Z,23.76
2017-08-13T13:05:07.724Z,24.04
2017-08-13T13:06:17.389Z,24.24
2017-08-13T13:07:26.770Z,24.18
2017-08-13T13:08:37.013Z,24.16
2017-08-13T13:09:47.318Z,23.91
2017-08-13T13:10:57.621Z,24.04
2017-08-13T13:12:07.902Z,24.24
2017-08-13T13:13:18.210Z,24.71
2017-08-13T13:14:28.796Z,24.69
2017-08-13T13:15:38.839Z,24.88
2017-08-13T13:16:49.126Z,24.77
2017-08-13T13:17:59.116Z,24.94
2017-08-13T13:19:09.396Z,25
2017-08-13T13:20:19.957Z,24.94
2017-08-13T13:21:30.713Z,24.97
2017-08-13T13:22:41.011Z,25.12
2017-08-13T13:23:51.319Z,25.16
2017-08-13T13:25:01.619Z,25.16
2017-08-13T13:26:12.159Z,25.21
2017-08-13T13:27:21.833Z,25.33
2017-08-13T13:28:32.139Z,25.26
2017-08-13T13:29:42.439Z,25.25
2017-08-13T13:30:52.744Z,25.31
2017-08-13T13:32:02.984Z,25.3
2017-08-13T13:33:12.960Z,25.54
2017-08-13T13:34:23.252Z,25.91
2017-08-13T13:35:33.543Z,26.31
2017-08-13T13:36:43.213Z,26.34
2017-08-13T13:37:53.757Z,26.37
2017-08-13T13:39:03.771Z,25.93
2017-08-13T13:40:14.060Z,25.8
2017-08-13T13:41:24.031Z,25.85
2017-08-13T13:42:34.008Z,25.56
2017-08-13T13:43:44.559Z,25.54
2017-08-13T13:44:54.858Z,25.56
2017-08-13T13:46:04.223Z,25.51
2017-08-13T13:47:14.539Z,25.78
2017-08-13T13:48:24.827Z,25.77
2017-08-13T13:49:35.056Z,25.41
2017-08-13T13:50:45.068Z,25.3
2017-08-13T13:51:55.360Z,25.36
2017-08-13T13:53:05.648Z,25.3
2017-08-13T13:54:15.646Z,24.97
2017-08-13T13:55:25.573Z,24.66
2017-08-13T13:56:35.871Z,24.19
2017-08-13T13:57:45.852Z,23.89
2017-08-13T13:58:55.835Z,23.59
2017-08-13T14:00:05.836Z,23.59
2017-08-13T14:01:15.756Z,23.47
2017-08-13T14:02:26.055Z,23.39
2017-08-13T14:03:36.355Z,23.08
2017-08-13T14:04:46.317Z,22.96
2017-08-13T14:05:56.288Z,22.83
2017-08-13T14:07:06.847Z,22.86
2017-08-13T14:08:17.126Z,22.65
2017-08-13T14:09:27.424Z,22.49
2017-08-13T14:10:37.401Z,22.3
2017-08-13T14:11:47.382Z,22.23
2017-08-13T14:12:57.589Z,22.18
2017-08-13T14:14:07.881Z,22.19
2017-08-13T14:15:18.183Z,22.28
2017-08-13T14:16:28.483Z,22.36
2017-08-13T14:17:38.467Z,22.3
2017-08-13T14:18:48.678Z,22.4
2017-08-13T14:19:58.976Z,22.38
2017-08-13T14:21:09.264Z,22.51
2017-08-13T14:22:19.270Z,22.31
2017-08-13T14:23:29.557Z,22.28
2017-08-13T14:24:39.797Z,22.38
2017-08-13T14:25:50.071Z,22.28
2017-08-13T14:27:00.345Z,22.16
2017-08-13T14:28:10.316Z,22.15
2017-08-13T14:29:20.600Z,21.99
2017-08-13T14:30:31.131Z,22.03
2017-08-13T14:31:40.795Z,22
2017-08-13T14:32:50.780Z,21.99
2017-08-13T14:34:00.765Z,21.91
2017-08-13T14:35:11.073Z,21.84
2017-08-13T14:36:21.310Z,21.81
2017-08-13T14:37:30.975Z,21.83
2017-08-13T14:38:40.944Z,21.94
2017-08-13T14:39:51.244Z,22
2017-08-13T14:41:01.536Z,22.06
2017-08-13T14:42:11.774Z,22.14
2017-08-13T14:43:22.052Z,22.08
2017-08-13T14:44:32.034Z,22.18
2017-08-13T14:45:42.332Z,22.07
2017-08-13T14:46:52.627Z,22
2017-08-13T14:48:03.185Z,21.83
2017-08-13T14:49:13.471Z,21.8
2017-08-13T14:50:23.759Z,21.72
2017-08-13T14:51:33.425Z,21.74
2017-08-13T14:52:43.386Z,21.69
2017-08-13T14:53:53.918Z,21.83
2017-08-13T14:55:04.209Z,21.7
2017-08-13T14:56:14.506Z,21.7
2017-08-13T14:57:24.786Z,21.77
2017-08-13T14:58:35.068Z,21.81
2017-08-13T14:59:45.297Z,22.03
2017-08-13T15:00:55.582Z,22.12
2017-08-13T15:02:05.556Z,22.19
2017-08-13T15:03:15.860Z,22.33
2017-08-13T15:04:25.825Z,22.37
2017-08-13T15:05:36.365Z,22.4
2017-08-13T15:06:46.343Z,22.67
2017-08-13T15:07:56.621Z,22.59